sensor_id;sensor_type;location;lat;lon;timestamp;temperature;humidity
5210;DHT22;2624;48.048;11.706;2022-09-03T00:04:11;15.50;99.90
5210;DHT22;2624;48.048;11.706;2022-09-03T00:09:23;15.70;99.90
5210;DHT22;2624;48.048;11.706;2022-09-03T00:14:31;15.80;99.90
5210;DHT22;2624;48.048;11.706;2022-09-03T00:19:40;15.80;99.90
5210;DHT22;2624;48.048;11.706;2022-09-03T00:24:44;15.70;99.90
5210;DHT22;2624;48.048;11.706;2022-09-03T00:29:50;15.70;99.90
5210;DHT22;2624;48.048;11.706;2022-09-03T00:34:57;15.70;99.90
5210;DHT22;2624;48.048;11.706;2022-09-03T00:40:01;15.70;99.90
5210;DHT22;2624;48.048;11.706;2022-09-03T00:45:20;15.70;99.90
5210;DHT22;2624;48.048;11.706;2022-09-03T00:50:33;15.50;99.90
5210;DHT22;2624;48.048;11.706;2022-09-03T00:55:46;15.50;99.90
5210;DHT22;2624;48.048;11.706;2022-09-03T01:00:51;15.50;99.90
5210;DHT22;2624;48.048;11.706;2022-09-03T01:06:08;14.60;99.90
5210;DHT22;2624;48.048;11.706;2022-09-03T01:11:19;15.10;99.90
5210;DHT22;2624;48.048;11.706;2022-09-03T01:16:29;15.30;99.90
5210;DHT22;2624;48.048;11.706;2022-09-03T01:21:58;15.20;99.90
5210;DHT22;2624;48.048;11.706;2022-09-03T01:27:17;14.60;99.90
5210;DHT22;2624;48.048;11.706;2022-09-03T01:32:36;14.90;99.90
5210;DHT22;2624;48.048;11.706;2022-09-03T01:37:50;15.20;99.90
5210;DHT22;2624;48.048;11.706;2022-09-03T01:43:03;15.10;99.90
5210;DHT22;2624;48.048;11.706;2022-09-03T01:48:18;15.10;99.90
5210;DHT22;2624;48.048;11.706;2022-09-03T01:53:38;15.20;99.90
5210;DHT22;2624;48.048;11.706;2022-09-03T01:58:44;15.20;99.90
5210;DHT22;2624;48.048;11.706;2022-09-03T02:03:48;15.10;99.90
5210;DHT22;2624;48.048;11.706;2022-09-03T02:08:51;15.10;99.90
5210;DHT22;2624;48.048;11.706;2022-09-03T02:13:55;15.00;99.90
5210;DHT22;2624;48.048;11.706;2022-09-03T02:19:02;15.00;99.90
5210;DHT22;2624;48.048;11.706;2022-09-03T02:24:07;15.00;99.90
5210;DHT22;2624;48.048;11.706;2022-09-03T02:29:09;15.00;99.90
5210;DHT22;2624;48.048;11.706;2022-09-03T02:34:12;14.90;99.90
5210;DHT22;2624;48.048;11.706;2022-09-03T02:39:15;14.90;99.90
5210;DHT22;2624;48.048;11.706;2022-09-03T02:44:22;14.60;99.90
5210;DHT22;2624;48.048;11.706;2022-09-03T02:49:28;14.60;99.90
5210;DHT22;2624;48.048;11.706;2022-09-03T02:54:30;14.30;99.90
5210;DHT22;2624;48.048;11.706;2022-09-03T02:59:33;14.60;99.90
5210;DHT22;2624;48.048;11.706;2022-09-03T03:04:36;14.70;99.90
5210;DHT22;2624;48.048;11.706;2022-09-03T03:09:38;14.70;99.90
5210;DHT22;2624;48.048;11.706;2022-09-03T03:14:40;14.60;99.90
5210;DHT22;2624;48.048;11.706;2022-09-03T03:19:43;14.50;99.90
5210;DHT22;2624;48.048;11.706;2022-09-03T03:24:45;14.50;99.90
5210;DHT22;2624;48.048;11.706;2022-09-03T03:29:46;14.40;99.90
5210;DHT22;2624;48.048;11.706;2022-09-03T03:34:49;14.40;99.90
5210;DHT22;2624;48.048;11.706;2022-09-03T03:39:51;14.50;99.90
5210;DHT22;2624;48.048;11.706;2022-09-03T03:44:53;14.30;99.90
5210;DHT22;2624;48.048;11.706;2022-09-03T03:49:56;13.40;99.90
5210;DHT22;2624;48.048;11.706;2022-09-03T03:54:58;13.60;99.90
5210;DHT22;2624;48.048;11.706;2022-09-03T04:00:00;13.60;99.90
5210;DHT22;2624;48.048;11.706;2022-09-03T04:05:04;14.10;99.90
5210;DHT22;2624;48.048;11.706;2022-09-03T04:10:07;14.20;99.90
5210;DHT22;2624;48.048;11.706;2022-09-03T04:15:09;13.80;99.90
5210;DHT22;2624;48.048;11.706;2022-09-03T04:20:13;13.70;99.90
5210;DHT22;2624;48.048;11.706;2022-09-03T04:25:15;14.00;99.90
5210;DHT22;2624;48.048;11.706;2022-09-03T04:30:16;14.10;99.90
5210;DHT22;2624;48.048;11.706;2022-09-03T04:35:20;14.00;99.90
5210;DHT22;2624;48.048;11.706;2022-09-03T04:40:22;14.00;99.90
5210;DHT22;2624;48.048;11.706;2022-09-03T04:45:24;13.90;99.90
5210;DHT22;2624;48.048;11.706;2022-09-03T04:50:29;13.90;99.90
5210;DHT22;2624;48.048;11.706;2022-09-03T04:55:33;13.90;99.90
5210;DHT22;2624;48.048;11.706;2022-09-03T05:00:35;13.90;99.90
5210;DHT22;2624;48.048;11.706;2022-09-03T05:05:39;13.80;99.90
5210;DHT22;2624;48.048;11.706;2022-09-03T05:10:40;13.70;99.90
5210;DHT22;2624;48.048;11.706;2022-09-03T05:15:42;13.80;99.90
5210;DHT22;2624;48.048;11.706;2022-09-03T05:20:46;13.80;99.90
5210;DHT22;2624;48.048;11.706;2022-09-03T05:25:54;13.80;99.90
5210;DHT22;2624;48.048;11.706;2022-09-03T05:30:59;13.50;99.90
5210;DHT22;2624;48.048;11.706;2022-09-03T05:36:04;13.60;99.90
5210;DHT22;2624;48.048;11.706;2022-09-03T05:41:08;13.70;99.90
5210;DHT22;2624;48.048;11.706;2022-09-03T05:46:11;13.80;99.90
5210;DHT22;2624;48.048;11.706;2022-09-03T05:51:16;13.90;99.90
5210;DHT22;2624;48.048;11.706;2022-09-03T05:56:19;14.00;99.90
5210;DHT22;2624;48.048;11.706;2022-09-03T06:01:24;13.80;99.90
5210;DHT22;2624;48.048;11.706;2022-09-03T06:06:29;13.90;99.90
5210;DHT22;2624;48.048;11.706;2022-09-03T06:11:32;13.50;99.90
5210;DHT22;2624;48.048;11.706;2022-09-03T06:16:36;13.60;99.90
5210;DHT22;2624;48.048;11.706;2022-09-03T06:21:41;13.60;99.90
5210;DHT22;2624;48.048;11.706;2022-09-03T06:26:43;13.60;99.90
5210;DHT22;2624;48.048;11.706;2022-09-03T06:31:46;13.70;99.90
5210;DHT22;2624;48.048;11.706;2022-09-03T06:36:51;13.80;99.90
5210;DHT22;2624;48.048;11.706;2022-09-03T06:41:53;13.80;99.90
5210;DHT22;2624;48.048;11.706;2022-09-03T06:46:55;13.90;99.90
5210;DHT22;2624;48.048;11.706;2022-09-03T06:52:02;13.90;99.90
5210;DHT22;2624;48.048;11.706;2022-09-03T06:57:04;13.90;99.90
5210;DHT22;2624;48.048;11.706;2022-09-03T07:02:05;14.00;99.90
5210;DHT22;2624;48.048;11.706;2022-09-03T07:07:09;14.00;99.90
5210;DHT22;2624;48.048;11.706;2022-09-03T07:12:12;14.10;99.90
5210;DHT22;2624;48.048;11.706;2022-09-03T07:17:16;14.00;99.90
5210;DHT22;2624;48.048;11.706;2022-09-03T07:22:19;14.10;99.90
5210;DHT22;2624;48.048;11.706;2022-09-03T07:27:21;14.10;99.90
5210;DHT22;2624;48.048;11.706;2022-09-03T07:32:23;14.20;99.90
5210;DHT22;2624;48.048;11.706;2022-09-03T07:37:26;14.20;99.90
5210;DHT22;2624;48.048;11.706;2022-09-03T07:42:28;14.20;99.90
5210;DHT22;2624;48.048;11.706;2022-09-03T07:47:30;14.20;99.90
5210;DHT22;2624;48.048;11.706;2022-09-03T07:52:35;14.20;99.90
5210;DHT22;2624;48.048;11.706;2022-09-03T07:57:37;14.20;99.90
5210;DHT22;2624;48.048;11.706;2022-09-03T08:02:39;14.20;99.90
5210;DHT22;2624;48.048;11.706;2022-09-03T08:07:42;14.30;99.90
5210;DHT22;2624;48.048;11.706;2022-09-03T08:12:44;14.30;99.90
5210;DHT22;2624;48.048;11.706;2022-09-03T08:17:45;14.30;99.90
5210;DHT22;2624;48.048;11.706;2022-09-03T08:22:48;14.40;99.90
5210;DHT22;2624;48.048;11.706;2022-09-03T08:27:50;14.50;99.90
5210;DHT22;2624;48.048;11.706;2022-09-03T08:32:52;14.50;99.90
5210;DHT22;2624;48.048;11.706;2022-09-03T08:37:56;14.60;99.90
5210;DHT22;2624;48.048;11.706;2022-09-03T08:43:10;14.90;99.90
5210;DHT22;2624;48.048;11.706;2022-09-03T08:48:16;14.70;99.90
5210;DHT22;2624;48.048;11.706;2022-09-03T08:53:24;14.80;99.90
5210;DHT22;2624;48.048;11.706;2022-09-03T08:58:31;14.90;99.90
5210;DHT22;2624;48.048;11.706;2022-09-03T09:03:41;15.10;99.90
5210;DHT22;2624;48.048;11.706;2022-09-03T09:08:53;14.90;99.90
5210;DHT22;2624;48.048;11.706;2022-09-03T09:14:01;15.10;99.90
5210;DHT22;2624;48.048;11.706;2022-09-03T09:19:12;15.20;99.90
5210;DHT22;2624;48.048;11.706;2022-09-03T09:24:23;15.70;99.90
5210;DHT22;2624;48.048;11.706;2022-09-03T09:29:30;16.20;99.90
5210;DHT22;2624;48.048;11.706;2022-09-03T09:34:33;16.30;99.90
5210;DHT22;2624;48.048;11.706;2022-09-03T09:39:38;16.10;99.90
5210;DHT22;2624;48.048;11.706;2022-09-03T09:44:42;16.20;99.90
5210;DHT22;2624;48.048;11.706;2022-09-03T09:49:52;16.70;99.90
5210;DHT22;2624;48.048;11.706;2022-09-03T09:55:08;17.10;99.90
5210;DHT22;2624;48.048;11.706;2022-09-03T10:00:11;16.60;99.90
5210;DHT22;2624;48.048;11.706;2022-09-03T10:05:19;16.30;99.90
5210;DHT22;2624;48.048;11.706;2022-09-03T10:10:22;16.40;99.90
5210;DHT22;2624;48.048;11.706;2022-09-03T10:15:30;16.50;99.90
5210;DHT22;2624;48.048;11.706;2022-09-03T10:20:38;16.70;99.90
5210;DHT22;2624;48.048;11.706;2022-09-03T10:25:58;17.00;99.90
5210;DHT22;2624;48.048;11.706;2022-09-03T10:31:35;16.80;99.90
5210;DHT22;2624;48.048;11.706;2022-09-03T10:36:43;17.20;99.90
5210;DHT22;2624;48.048;11.706;2022-09-03T10:41:58;17.10;99.90
5210;DHT22;2624;48.048;11.706;2022-09-03T10:47:17;17.00;99.90
5210;DHT22;2624;48.048;11.706;2022-09-03T10:52:28;17.30;99.90
5210;DHT22;2624;48.048;11.706;2022-09-03T10:57:42;17.70;99.90
5210;DHT22;2624;48.048;11.706;2022-09-03T11:08:22;19.10;99.90
5210;DHT22;2624;48.048;11.706;2022-09-03T11:13:31;19.20;99.90
5210;DHT22;2624;48.048;11.706;2022-09-03T11:18:40;19.60;99.90
5210;DHT22;2624;48.048;11.706;2022-09-03T11:23:45;19.10;99.90
5210;DHT22;2624;48.048;11.706;2022-09-03T11:28:55;19.50;99.90
5210;DHT22;2624;48.048;11.706;2022-09-03T11:34:04;19.40;99.90
5210;DHT22;2624;48.048;11.706;2022-09-03T11:39:17;19.10;99.90
5210;DHT22;2624;48.048;11.706;2022-09-03T11:44:20;20.00;99.90
5210;DHT22;2624;48.048;11.706;2022-09-03T11:49:28;19.10;99.90
5210;DHT22;2624;48.048;11.706;2022-09-03T11:54:31;19.00;99.90
5210;DHT22;2624;48.048;11.706;2022-09-03T11:59:35;19.70;99.90
5210;DHT22;2624;48.048;11.706;2022-09-03T12:04:43;19.40;99.90
5210;DHT22;2624;48.048;11.706;2022-09-03T12:15:34;21.00;99.90
5210;DHT22;2624;48.048;11.706;2022-09-03T12:20:37;19.70;99.90
5210;DHT22;2624;48.048;11.706;2022-09-03T12:25:42;19.60;99.90
5210;DHT22;2624;48.048;11.706;2022-09-03T12:30:48;21.10;99.90
5210;DHT22;2624;48.048;11.706;2022-09-03T12:35:56;21.40;99.90
5210;DHT22;2624;48.048;11.706;2022-09-03T12:40:57;20.70;99.90
5210;DHT22;2624;48.048;11.706;2022-09-03T12:46:00;21.90;99.90
5210;DHT22;2624;48.048;11.706;2022-09-03T12:51:02;21.90;99.90
5210;DHT22;2624;48.048;11.706;2022-09-03T12:56:04;22.10;99.90
5210;DHT22;2624;48.048;11.706;2022-09-03T13:01:13;20.80;99.90
5210;DHT22;2624;48.048;11.706;2022-09-03T13:06:18;21.00;99.90
5210;DHT22;2624;48.048;11.706;2022-09-03T13:11:22;21.70;99.90
5210;DHT22;2624;48.048;11.706;2022-09-03T13:16:45;22.10;99.90
5210;DHT22;2624;48.048;11.706;2022-09-03T13:21:57;22.60;99.90
5210;DHT22;2624;48.048;11.706;2022-09-03T13:27:05;22.70;99.90
5210;DHT22;2624;48.048;11.706;2022-09-03T13:32:24;22.20;99.90
5210;DHT22;2624;48.048;11.706;2022-09-03T13:37:32;22.80;99.90
5210;DHT22;2624;48.048;11.706;2022-09-03T13:42:38;21.90;99.90
5210;DHT22;2624;48.048;11.706;2022-09-03T13:47:47;21.80;99.90
5210;DHT22;2624;48.048;11.706;2022-09-03T13:53:25;21.80;99.90
5210;DHT22;2624;48.048;11.706;2022-09-03T13:58:37;21.30;99.90
5210;DHT22;2624;48.048;11.706;2022-09-03T14:03:48;21.50;99.90
5210;DHT22;2624;48.048;11.706;2022-09-03T14:09:00;21.50;99.90
5210;DHT22;2624;48.048;11.706;2022-09-03T14:14:15;21.50;99.90
5210;DHT22;2624;48.048;11.706;2022-09-03T14:19:26;21.40;99.90
5210;DHT22;2624;48.048;11.706;2022-09-03T14:24:43;21.30;99.90
5210;DHT22;2624;48.048;11.706;2022-09-03T14:29:51;21.30;99.90
5210;DHT22;2624;48.048;11.706;2022-09-03T14:35:15;21.30;99.90
5210;DHT22;2624;48.048;11.706;2022-09-03T14:40:38;21.20;99.90
5210;DHT22;2624;48.048;11.706;2022-09-03T14:46:07;20.40;99.90
5210;DHT22;2624;48.048;11.706;2022-09-03T14:51:39;20.00;99.90
5210;DHT22;2624;48.048;11.706;2022-09-03T14:56:49;19.80;99.90
5210;DHT22;2624;48.048;11.706;2022-09-03T15:02:28;19.50;99.90
5210;DHT22;2624;48.048;11.706;2022-09-03T15:07:39;19.60;99.90
5210;DHT22;2624;48.048;11.706;2022-09-03T15:12:45;18.60;99.90
5210;DHT22;2624;48.048;11.706;2022-09-03T15:18:01;18.40;99.90
5210;DHT22;2624;48.048;11.706;2022-09-03T15:23:28;18.20;99.90
5210;DHT22;2624;48.048;11.706;2022-09-03T15:28:39;17.90;99.90
5210;DHT22;2624;48.048;11.706;2022-09-03T15:33:48;17.60;99.90
5210;DHT22;2624;48.048;11.706;2022-09-03T15:38:57;17.20;99.90
5210;DHT22;2624;48.048;11.706;2022-09-03T15:44:02;16.90;99.90
5210;DHT22;2624;48.048;11.706;2022-09-03T15:49:09;17.10;99.90
5210;DHT22;2624;48.048;11.706;2022-09-03T15:54:29;17.00;99.90
5210;DHT22;2624;48.048;11.706;2022-09-03T15:59:39;16.70;99.90
5210;DHT22;2624;48.048;11.706;2022-09-03T16:05:01;16.80;99.90
5210;DHT22;2624;48.048;11.706;2022-09-03T16:10:11;16.70;99.90
5210;DHT22;2624;48.048;11.706;2022-09-03T16:15:16;16.70;99.90
5210;DHT22;2624;48.048;11.706;2022-09-03T16:20:24;16.40;99.90
5210;DHT22;2624;48.048;11.706;2022-09-03T16:25:29;16.50;99.90
5210;DHT22;2624;48.048;11.706;2022-09-03T16:30:47;16.40;99.90
5210;DHT22;2624;48.048;11.706;2022-09-03T16:35:59;16.20;99.90
5210;DHT22;2624;48.048;11.706;2022-09-03T16:41:14;16.20;99.90
5210;DHT22;2624;48.048;11.706;2022-09-03T16:46:23;16.30;99.90
5210;DHT22;2624;48.048;11.706;2022-09-03T16:51:32;16.30;99.90
5210;DHT22;2624;48.048;11.706;2022-09-03T16:56:51;16.50;99.90
5210;DHT22;2624;48.048;11.706;2022-09-03T17:02:04;16.20;99.90
5210;DHT22;2624;48.048;11.706;2022-09-03T17:07:16;16.40;99.90
5210;DHT22;2624;48.048;11.706;2022-09-03T17:12:25;16.10;99.90
5210;DHT22;2624;48.048;11.706;2022-09-03T17:17:46;16.00;99.90
5210;DHT22;2624;48.048;11.706;2022-09-03T17:23:00;15.90;99.90
5210;DHT22;2624;48.048;11.706;2022-09-03T17:28:21;15.90;99.90
5210;DHT22;2624;48.048;11.706;2022-09-03T17:39:09;16.00;99.90
5210;DHT22;2624;48.048;11.706;2022-09-03T17:44:26;16.00;99.90
5210;DHT22;2624;48.048;11.706;2022-09-03T17:55:31;15.80;99.90
5210;DHT22;2624;48.048;11.706;2022-09-03T18:00:39;15.80;99.90
5210;DHT22;2624;48.048;11.706;2022-09-03T18:05:47;15.80;99.90
5210;DHT22;2624;48.048;11.706;2022-09-03T18:16:54;15.90;99.90
5210;DHT22;2624;48.048;11.706;2022-09-03T18:22:45;15.80;99.90
5210;DHT22;2624;48.048;11.706;2022-09-03T18:28:09;15.80;99.90
5210;DHT22;2624;48.048;11.706;2022-09-03T18:33:30;15.70;99.90
5210;DHT22;2624;48.048;11.706;2022-09-03T18:38:49;15.70;99.90
5210;DHT22;2624;48.048;11.706;2022-09-03T18:44:14;15.60;99.90
5210;DHT22;2624;48.048;11.706;2022-09-03T18:49:44;15.60;99.90
5210;DHT22;2624;48.048;11.706;2022-09-03T18:55:12;15.70;99.90
5210;DHT22;2624;48.048;11.706;2022-09-03T19:00:38;15.80;99.90
5210;DHT22;2624;48.048;11.706;2022-09-03T19:06:06;15.90;99.90
5210;DHT22;2624;48.048;11.706;2022-09-03T19:11:29;15.80;99.90
5210;DHT22;2624;48.048;11.706;2022-09-03T19:16:57;15.10;99.90
5210;DHT22;2624;48.048;11.706;2022-09-03T19:22:26;14.90;99.90
5210;DHT22;2624;48.048;11.706;2022-09-03T19:27:53;15.10;99.90
5210;DHT22;2624;48.048;11.706;2022-09-03T19:33:19;15.10;99.90
5210;DHT22;2624;48.048;11.706;2022-09-03T19:38:51;15.00;99.90
5210;DHT22;2624;48.048;11.706;2022-09-03T19:44:31;15.30;99.90
5210;DHT22;2624;48.048;11.706;2022-09-03T19:50:01;15.20;99.90
5210;DHT22;2624;48.048;11.706;2022-09-03T19:55:25;15.20;99.90
5210;DHT22;2624;48.048;11.706;2022-09-03T20:00:45;15.20;99.90
5210;DHT22;2624;48.048;11.706;2022-09-03T20:06:05;15.00;99.90
5210;DHT22;2624;48.048;11.706;2022-09-03T20:11:28;15.00;99.90
5210;DHT22;2624;48.048;11.706;2022-09-03T20:16:35;15.00;99.90
5210;DHT22;2624;48.048;11.706;2022-09-03T20:21:42;15.40;99.90
5210;DHT22;2624;48.048;11.706;2022-09-03T20:26:56;15.30;99.90
5210;DHT22;2624;48.048;11.706;2022-09-03T20:32:07;15.20;99.90
5210;DHT22;2624;48.048;11.706;2022-09-03T20:37:20;15.00;99.90
5210;DHT22;2624;48.048;11.706;2022-09-03T20:42:39;15.30;99.90
5210;DHT22;2624;48.048;11.706;2022-09-03T20:48:00;15.30;99.90
5210;DHT22;2624;48.048;11.706;2022-09-03T20:53:08;15.30;99.90
5210;DHT22;2624;48.048;11.706;2022-09-03T20:58:20;15.40;99.90
5210;DHT22;2624;48.048;11.706;2022-09-03T21:03:29;15.10;99.90
5210;DHT22;2624;48.048;11.706;2022-09-03T21:09:00;15.30;99.90
5210;DHT22;2624;48.048;11.706;2022-09-03T21:14:17;14.80;99.90
5210;DHT22;2624;48.048;11.706;2022-09-03T21:19:32;14.90;99.90
5210;DHT22;2624;48.048;11.706;2022-09-03T21:24:39;14.50;99.90
5210;DHT22;2624;48.048;11.706;2022-09-03T21:29:49;14.70;99.90
5210;DHT22;2624;48.048;11.706;2022-09-03T21:34:57;14.70;99.90
5210;DHT22;2624;48.048;11.706;2022-09-03T21:40:05;14.50;99.90
5210;DHT22;2624;48.048;11.706;2022-09-03T21:45:13;14.60;99.90
5210;DHT22;2624;48.048;11.706;2022-09-03T21:50:20;14.30;99.90
5210;DHT22;2624;48.048;11.706;2022-09-03T21:55:30;14.50;99.90
5210;DHT22;2624;48.048;11.706;2022-09-03T22:00:35;14.70;99.90
5210;DHT22;2624;48.048;11.706;2022-09-03T22:05:44;14.50;99.90
5210;DHT22;2624;48.048;11.706;2022-09-03T22:10:58;14.50;99.90
5210;DHT22;2624;48.048;11.706;2022-09-03T22:16:11;14.60;99.90
5210;DHT22;2624;48.048;11.706;2022-09-03T22:21:18;14.40;99.90
5210;DHT22;2624;48.048;11.706;2022-09-03T22:26:32;14.60;99.90
5210;DHT22;2624;48.048;11.706;2022-09-03T22:31:47;14.60;99.90
5210;DHT22;2624;48.048;11.706;2022-09-03T22:36:57;14.70;99.90
5210;DHT22;2624;48.048;11.706;2022-09-03T22:42:17;14.80;99.90
5210;DHT22;2624;48.048;11.706;2022-09-03T22:47:29;14.90;99.90
5210;DHT22;2624;48.048;11.706;2022-09-03T22:52:39;14.50;99.90
5210;DHT22;2624;48.048;11.706;2022-09-03T22:57:56;14.30;99.90
5210;DHT22;2624;48.048;11.706;2022-09-03T23:03:07;14.30;99.90
5210;DHT22;2624;48.048;11.706;2022-09-03T23:08:13;14.50;99.90
5210;DHT22;2624;48.048;11.706;2022-09-03T23:13:18;14.40;99.90
5210;DHT22;2624;48.048;11.706;2022-09-03T23:18:24;14.60;99.90
5210;DHT22;2624;48.048;11.706;2022-09-03T23:23:30;14.50;99.90
5210;DHT22;2624;48.048;11.706;2022-09-03T23:28:35;14.60;99.90
5210;DHT22;2624;48.048;11.706;2022-09-03T23:33:40;14.50;99.90
5210;DHT22;2624;48.048;11.706;2022-09-03T23:38:52;14.50;99.90
5210;DHT22;2624;48.048;11.706;2022-09-03T23:44:05;14.50;99.90
5210;DHT22;2624;48.048;11.706;2022-09-03T23:49:29;14.40;99.90
5210;DHT22;2624;48.048;11.706;2022-09-03T23:54:37;14.30;99.90
5210;DHT22;2624;48.048;11.706;2022-09-03T23:59:52;14.10;99.90
